Myra Eckstein — WDF9473 — position and weather

sailwx.info

Track history (hours):
 
Tides and Currents Weather Stations Pressure Air Temp Water Temp Dewpoint Dewpoint Depression Visibility Wind Speed Wind Dir Waves Ship Positions

Myra Eckstein

More information available from US FCC via Universal Licensing System and Coast Guard Vessel Documentation Center.

Last reported at 2014-Sep-02 03:07 UTC. Time now 2014-Sep-15 09:33 UTC.
Position N 30°13' W 091°09'.
Warning: this ship's position is 13 days out of date.

Length 47 m; draft 3.5 m.

Type: Towing. MMSI: 367505510.

Date/timePositionNaut miles runAvg speedWind from/ knotsBaromVisibWave heightAir tempDewpointWater temp
2014-Sep-02 03:07N 30°13' W 091°09'17 3.0
2014-Sep-01 21:26N 30°04' W 090°53'10 1.1
2014-Sep-01 12:16N 30°02' W 090°41'4 5.6
2014-Sep-01 11:33N 30°02' W 090°37'7 6.5
2014-Sep-01 10:33N 30°03' W 090°29'2 1.8
2014-Sep-01 09:33N 30°01' W 090°29'0 0.0
2014-Sep-01 08:33N 30°01' W 090°29'0 0.0
2014-Sep-01 07:33N 30°01' W 090°29'0 0.0
2014-Sep-01 06:33N 30°01' W 090°29'2 2.4
2014-Sep-01 05:33N 29°60' W 090°26'6 5.6
2014-Sep-01 04:33N 29°56' W 090°21'0 0.0
2014-Aug-31 09:30N 29°56' W 090°21'1 1.2
2014-Aug-31 08:33N 29°56' W 090°22'5 5.3
2014-Aug-31 07:33N 29°60' W 090°27'2 2.4
2014-Aug-31 06:33N 30°02' W 090°28'0 0.0
2014-Aug-31 05:33N 30°02' W 090°28'0 0.0
2014-Aug-31 04:33N 30°02' W 090°28'0 0.0
2014-Aug-31 03:33N 30°02' W 090°28'0 0.3
2014-Aug-31 02:33N 30°02' W 090°28'5 5.2
2014-Aug-31 01:33N 30°03' W 090°34'0 0.1
2014-Aug-31 00:33N 30°03' W 090°34'0 0.0
2014-Aug-30 23:33N 30°03' W 090°34'0 0.1
2014-Aug-30 22:33N 30°03' W 090°34'0 0.1
2014-Aug-30 21:33N 30°03' W 090°34'0 0.0
2014-Aug-30 20:33N 30°03' W 090°34'0 0.0
2014-Aug-30 19:33N 30°03' W 090°34'3 3.3
2014-Aug-30 18:33N 30°02' W 090°38'8 7.3
2014-Aug-30 17:31N 30°01' W 090°46'2 1.9
2014-Aug-30 16:33N 29°60' W 090°48'  
Track history (hours):
 
Tides and Currents Weather Stations Pressure Air Temp Water Temp Dewpoint Dewpoint Depression Visibility Wind Speed Wind Dir Waves Ship Positions

Myra Eckstein

More information available from US FCC via Universal Licensing System and Coast Guard Vessel Documentation Center.

Last reported at 2014-Sep-02 03:07 UTC. Time now 2014-Sep-15 09:33 UTC.
Position N 30°13' W 091°09'.
Warning: this ship's position is 13 days out of date.

Length 47 m; draft 3.5 m.

Type: Towing. MMSI: 367505510.

Date/timePositionNaut miles runAvg speedWind from/ knotsBaromVisibWave heightAir tempDewpointWater temp
2014-Sep-02 03:07N 30°13' W 091°09'17 3.0
2014-Sep-01 21:26N 30°04' W 090°53'10 1.1
2014-Sep-01 12:16N 30°02' W 090°41'4 5.6
2014-Sep-01 11:33N 30°02' W 090°37'7 6.5
2014-Sep-01 10:33N 30°03' W 090°29'2 1.8
2014-Sep-01 09:33N 30°01' W 090°29'0 0.0
2014-Sep-01 08:33N 30°01' W 090°29'0 0.0
2014-Sep-01 07:33N 30°01' W 090°29'0 0.0
2014-Sep-01 06:33N 30°01' W 090°29'2 2.4
2014-Sep-01 05:33N 29°60' W 090°26'6 5.6
2014-Sep-01 04:33N 29°56' W 090°21'0 0.0
2014-Aug-31 09:30N 29°56' W 090°21'1 1.2
2014-Aug-31 08:33N 29°56' W 090°22'5 5.3
2014-Aug-31 07:33N 29°60' W 090°27'2 2.4
2014-Aug-31 06:33N 30°02' W 090°28'0 0.0
2014-Aug-31 05:33N 30°02' W 090°28'0 0.0
2014-Aug-31 04:33N 30°02' W 090°28'0 0.0
2014-Aug-31 03:33N 30°02' W 090°28'0 0.3
2014-Aug-31 02:33N 30°02' W 090°28'5 5.2
2014-Aug-31 01:33N 30°03' W 090°34'0 0.1
2014-Aug-31 00:33N 30°03' W 090°34'0 0.0
2014-Aug-30 23:33N 30°03' W 090°34'0 0.1
2014-Aug-30 22:33N 30°03' W 090°34'0 0.1
2014-Aug-30 21:33N 30°03' W 090°34'0 0.0
2014-Aug-30 20:33N 30°03' W 090°34'0 0.0
2014-Aug-30 19:33N 30°03' W 090°34'3 3.3
2014-Aug-30 18:33N 30°02' W 090°38'8 7.3
2014-Aug-30 17:31N 30°01' W 090°46'2 1.9
2014-Aug-30 16:33N 29°60' W 090°48'  

Dump ship's entire track history